Hlavní strana
METAR-TAF:

METAR-TAF

Letiště :

Borlänge, Švédsko

zeměpisná šířka: 60-26N, zeměpisná délka: 015-31E, výška: 145 m

Aktuální stav počasí

Zpráva byla vytvořena před 34 minutami, v 07:20 UTC
Severoseverovýchodní vítr 3 kt, proměnlivý mezi severním a východoseverovýchodním
Teplota 11°C
Vlhkost vzduchu 62%
Tlak 1018 hPa
Viditelnost 10 km a více
Žádná oblačnost pod 1500 m, nevyskytují se cumulonimby.

METAR: ESSD 260720Z 02003KT 350V060 CAVOK 11/04 Q1018

Čas: 09:54 (07:54 UTC)

Předpověď počasí

Zpráva byla vytvořena před 2 hodinami a 24 minutami, v 05:30 UTC
Předpověď platná od 26 v 06 UTC do 26 v 15 UTC
Východoseverovýchodní vítr 5 kt
Viditelnost 10 km a více
Žádná oblačnost pod 1500 m, nevyskytují se cumulonimby.

TAF: ESSD 260530Z 2606/2615 07005KT CAVOK

Stav a předpovědi počasí z více než 4 000 letišť (zprávy METAR a TAF).

Červené a žluté tečky na mapě představují dostupné meteorologické stanice.

Když kurzor umístíte na tečku, zobrazí se název stanice.

Pak kliknutím zobrazíte stav a předpověď počasí.

Chcete-li změnit mapu, kliknutím na zelené tlačítko se znaménkem +mapu přiblížíte, kliknutím na zelené tlačítko se znaménkem – mapu oddálíte a kliknutím na zelené šipky přejdete na sousední mapy.


METAR-TAF: